createdAt,value
2022-11-12T00:02:20.943Z,103051.72
2022-11-12T00:05:06.423Z,103062.63
2022-11-12T00:07:51.904Z,103060.03
2022-11-12T00:10:37.125Z,103052.75
2022-11-12T00:13:22.499Z,103051.88
2022-11-12T00:16:08.303Z,103055.53
2022-11-12T00:18:53.391Z,103060.69
2022-11-12T00:21:38.769Z,103064.72
2022-11-12T00:24:26.533Z,103060.63
2022-11-12T00:27:12.347Z,103051.47
2022-11-12T00:29:57.674Z,103053.50
2022-11-12T00:32:42.803Z,103054.28
2022-11-12T00:35:28.419Z,103053.88
2022-11-12T00:38:13.558Z,103054.97
2022-11-12T00:41:01.893Z,103060.13
2022-11-12T00:43:47.046Z,103065.38
2022-11-12T00:46:32.400Z,103059.19
2022-11-12T00:49:17.635Z,103053.97
2022-11-12T00:52:02.817Z,103061.88
2022-11-12T00:54:47.752Z,103078.69
2022-11-12T00:57:33.407Z,103076.88
2022-11-12T01:00:19.483Z,103060.63
2022-11-12T01:03:04.897Z,103043.91
2022-11-12T01:05:50.268Z,103049.44
2022-11-12T01:08:36.094Z,103056.25
2022-11-12T01:11:29.257Z,103071.75
2022-11-12T01:14:14.906Z,103076.72
2022-11-12T01:17:00.264Z,103068.72
2022-11-12T01:19:45.349Z,103042.50
2022-11-12T01:22:30.769Z,103049.34
2022-11-12T01:25:16.136Z,103064.50
2022-11-12T01:28:01.633Z,103071.91
2022-11-12T01:30:47.032Z,103071.81
2022-11-12T01:33:32.172Z,103072.03
2022-11-12T01:36:18.966Z,103070.84
2022-11-12T01:39:09.140Z,103076.81
2022-11-12T01:41:54.684Z,103078.44
2022-11-12T01:44:44.320Z,103079.19
2022-11-12T01:47:33.233Z,103085.44
2022-11-12T01:50:30.954Z,103081.06
2022-11-12T01:53:16.454Z,103068.34
2022-11-12T01:56:04.904Z,103065.28
2022-11-12T01:58:56.462Z,103080.28
2022-11-12T02:01:42.199Z,103083.16
2022-11-12T02:04:28.141Z,103070.66
2022-11-12T02:07:13.756Z,103065.97
2022-11-12T02:10:02.078Z,103061.19
2022-11-12T02:13:06.689Z,103069.44
2022-11-12T02:15:52.509Z,103060.88
2022-11-12T02:18:37.647Z,103051.59
2022-11-12T02:21:24.845Z,103053.47
2022-11-12T02:24:13.042Z,103067.38
2022-11-12T02:26:58.919Z,103071.00
2022-11-12T02:29:47.287Z,103058.84
2022-11-12T02:32:32.671Z,103045.25
2022-11-12T02:35:17.865Z,103060.19
2022-11-12T02:38:04.914Z,103066.31
2022-11-12T02:40:50.059Z,103062.66
2022-11-12T02:43:35.144Z,103059.28
2022-11-12T02:46:21.025Z,103062.31
2022-11-12T02:49:06.252Z,103068.38
2022-11-12T02:51:51.689Z,103078.75
2022-11-12T02:54:36.911Z,103075.13
2022-11-12T02:57:21.895Z,103065.34
2022-11-12T03:00:10.983Z,103065.78
2022-11-12T03:02:59.391Z,103062.78
2022-11-12T03:05:46.423Z,103058.66
2022-11-12T03:08:32.034Z,103066.75
2022-11-12T03:11:18.053Z,103058.34
2022-11-12T03:14:03.871Z,103053.06
2022-11-12T03:16:50.073Z,103051.84
2022-11-12T03:19:35.471Z,103049.22
2022-11-12T03:22:20.921Z,103055.19
2022-11-12T03:25:06.939Z,103069.63
2022-11-12T03:28:00.706Z,103066.03
2022-11-12T03:30:46.499Z,103069.16
2022-11-12T03:33:31.602Z,103065.28
2022-11-12T03:36:16.983Z,103060.78
2022-11-12T03:39:02.381Z,103065.09
2022-11-12T03:41:47.846Z,103073.91
2022-11-12T03:44:33.965Z,103072.91
2022-11-12T03:47:19.841Z,103053.97
2022-11-12T03:50:06.681Z,103056.75
2022-11-12T03:52:54.768Z,103065.38
2022-11-12T03:55:40.292Z,103070.09
2022-11-12T03:58:26.231Z,103070.94
2022-11-12T04:01:12.072Z,103072.00
2022-11-12T04:03:57.741Z,103066.84
2022-11-12T04:07:01.487Z,103066.41
2022-11-12T04:09:46.775Z,103053.53
2022-11-12T04:12:50.371Z,103055.59
2022-11-12T04:15:35.867Z,103055.59
2022-11-12T04:18:39.811Z,103059.53
2022-11-12T04:21:48.934Z,103048.91
2022-11-12T04:24:56.498Z,103057.38
2022-11-12T04:27:42.575Z,103063.16
2022-11-12T04:30:28.852Z,103069.84
2022-11-12T04:33:14.134Z,103058.00
2022-11-12T04:35:59.587Z,103055.88
2022-11-12T04:38:44.855Z,103066.16
2022-11-12T04:41:48.418Z,103062.81
2022-11-12T04:44:52.363Z,103059.31
2022-11-12T04:47:40.241Z,103062.09
2022-11-12T04:50:25.635Z,103064.56
2022-11-12T04:53:10.969Z,103065.81
2022-11-12T04:55:58.258Z,103063.38
2022-11-12T04:58:43.676Z,103056.75
2022-11-12T05:01:29.526Z,103047.53
2022-11-12T05:04:15.088Z,103060.81
2022-11-12T05:07:01.927Z,103074.44
2022-11-12T05:09:47.366Z,103060.44
2022-11-12T05:12:32.531Z,103060.53
2022-11-12T05:15:18.415Z,103057.25
2022-11-12T05:18:03.520Z,103052.56
2022-11-12T05:20:51.321Z,103060.72
2022-11-12T05:23:36.544Z,103067.06
2022-11-12T05:26:21.815Z,103062.28
2022-11-12T05:29:08.915Z,103055.56
2022-11-12T05:31:54.418Z,103058.94
2022-11-12T05:34:39.720Z,103067.53
2022-11-12T05:37:24.880Z,103068.25
2022-11-12T05:40:10.328Z,103084.00
2022-11-12T05:42:56.572Z,103078.97
2022-11-12T05:45:44.681Z,103084.50
2022-11-12T05:48:30.682Z,103089.75
2022-11-12T05:51:16.253Z,103086.34
2022-11-12T05:54:01.931Z,103092.16
2022-11-12T05:56:47.869Z,103082.25
2022-11-12T05:59:33.467Z,103080.41
2022-11-12T06:02:18.742Z,103098.09
2022-11-12T06:05:04.642Z,103099.28
2022-11-12T06:07:49.881Z,103100.81
2022-11-12T06:10:35.199Z,103090.31
2022-11-12T06:13:22.783Z,103092.88
2022-11-12T06:16:08.964Z,103096.22
2022-11-12T06:18:54.208Z,103104.47
2022-11-12T06:21:39.556Z,103101.47
2022-11-12T06:24:27.520Z,103091.47
2022-11-12T06:27:15.666Z,103073.75
2022-11-12T06:30:01.544Z,103085.69
2022-11-12T06:32:47.801Z,103091.81
2022-11-12T06:35:33.347Z,103100.44
2022-11-12T06:38:18.538Z,103093.88
2022-11-12T06:41:04.447Z,103092.66
2022-11-12T06:43:50.147Z,103092.56
2022-11-12T06:46:35.894Z,103088.91
2022-11-12T06:49:21.342Z,103097.88
2022-11-12T06:52:06.507Z,103090.16
2022-11-12T06:54:52.947Z,103093.00
2022-11-12T06:57:38.078Z,103096.50
2022-11-12T07:00:23.378Z,103098.25
2022-11-12T07:03:09.820Z,103108.75
2022-11-12T07:05:55.165Z,103101.50
2022-11-12T07:08:41.239Z,103096.56
2022-11-12T07:11:26.767Z,103102.22
2022-11-12T07:14:11.931Z,103106.81
2022-11-12T07:16:57.276Z,103103.31
2022-11-12T07:19:42.468Z,103108.22
2022-11-12T07:22:27.576Z,103113.91
2022-11-12T07:25:12.827Z,103116.31
2022-11-12T07:27:57.893Z,103113.84
2022-11-12T07:30:43.243Z,103116.72
2022-11-12T07:33:29.551Z,103134.69
2022-11-12T07:36:17.060Z,103140.13
2022-11-12T07:39:02.753Z,103133.56
2022-11-12T07:41:47.852Z,103123.88
2022-11-12T07:44:33.729Z,103125.28
2022-11-12T07:47:19.188Z,103127.97
2022-11-12T07:50:04.659Z,103142.34
2022-11-12T07:52:50.332Z,103144.53
2022-11-12T07:55:35.655Z,103139.75
2022-11-12T07:58:21.095Z,103148.41
2022-11-12T08:01:10.629Z,103157.28
2022-11-12T08:03:56.127Z,103154.81
2022-11-12T08:06:41.939Z,103147.66
2022-11-12T08:09:27.372Z,103127.97
2022-11-12T08:12:12.546Z,103137.00
2022-11-12T08:14:58.173Z,103150.59
2022-11-12T08:17:43.398Z,103169.72
2022-11-12T08:20:29.031Z,103171.84
2022-11-12T08:23:14.141Z,103166.81
2022-11-12T08:26:04.423Z,103161.06
2022-11-12T08:28:50.348Z,103152.69
2022-11-12T08:31:36.189Z,103153.19
2022-11-12T08:34:22.807Z,103172.69
2022-11-12T08:37:08.480Z,103184.16
2022-11-12T08:39:53.825Z,103175.84
2022-11-12T08:42:39.162Z,103172.94
2022-11-12T08:45:24.734Z,103171.56
2022-11-12T08:48:15.739Z,103167.81
2022-11-12T08:51:04.661Z,103173.78
2022-11-12T08:53:49.962Z,103177.66
2022-11-12T08:56:35.406Z,103181.03
2022-11-12T08:59:20.767Z,103179.72
2022-11-12T09:02:06.783Z,103179.09
2022-11-12T09:04:52.469Z,103176.91
2022-11-12T09:07:54.076Z,103178.41
2022-11-12T09:10:40.758Z,103184.75
2022-11-12T09:13:26.268Z,103191.84
2022-11-12T09:16:11.936Z,103191.97
2022-11-12T09:18:56.994Z,103192.00
2022-11-12T09:21:42.657Z,103180.66
2022-11-12T09:24:28.272Z,103191.53
2022-11-12T09:27:13.599Z,103199.25
2022-11-12T09:29:59.765Z,103202.78
2022-11-12T09:32:44.917Z,103206.56
2022-11-12T09:35:31.007Z,103191.34
2022-11-12T09:38:18.007Z,103177.47
2022-11-12T09:41:21.338Z,103184.13
2022-11-12T09:44:16.919Z,103204.53
2022-11-12T09:47:11.458Z,103200.97
2022-11-12T09:50:18.761Z,103192.34
2022-11-12T09:53:12.869Z,103179.56
2022-11-12T09:55:58.313Z,103176.09
2022-11-12T09:58:43.664Z,103186.44
2022-11-12T10:01:45.311Z,103184.69
2022-11-12T10:04:55.594Z,103188.09
2022-11-12T10:08:13.967Z,103188.94
2022-11-12T10:11:07.525Z,103181.97
2022-11-12T10:14:18.520Z,103178.69
2022-11-12T10:17:36.475Z,103173.88
2022-11-12T10:20:28.153Z,103166.72
2022-11-12T10:23:19.096Z,103157.72
2022-11-12T10:26:18.077Z,103157.81
2022-11-12T10:29:12.601Z,103168.31
2022-11-12T10:32:02.603Z,103173.53
2022-11-12T10:34:48.156Z,103175.16
2022-11-12T10:37:46.357Z,103179.19
2022-11-12T10:40:36.809Z,103156.66
2022-11-12T10:43:24.298Z,103158.84
2022-11-12T10:46:22.191Z,103154.66
2022-11-12T10:49:23.823Z,103154.31
2022-11-12T10:52:22.059Z,103167.00
2022-11-12T10:55:15.628Z,103171.22
2022-11-12T10:58:09.752Z,103161.75
2022-11-12T11:01:02.680Z,103147.03
2022-11-12T11:03:55.951Z,103137.00
2022-11-12T11:06:41.309Z,103145.34
2022-11-12T11:09:27.323Z,103146.69
2022-11-12T11:12:25.456Z,103157.41
2022-11-12T11:15:10.878Z,103153.75
2022-11-12T11:17:56.022Z,103149.38
2022-11-12T11:20:52.734Z,103135.25
2022-11-12T11:23:53.775Z,103135.75
2022-11-12T11:26:45.157Z,103141.56
2022-11-12T11:29:50.802Z,103145.00
2022-11-12T11:32:48.296Z,103148.91
2022-11-12T11:36:08.485Z,103145.56
2022-11-12T11:39:09.742Z,103145.97
2022-11-12T11:42:18.498Z,103147.78
2022-11-12T11:45:18.564Z,103140.78
2022-11-12T11:48:22.274Z,103137.06
2022-11-12T11:51:26.240Z,103140.47
2022-11-12T11:54:35.192Z,103140.72
2022-11-12T11:57:28.264Z,103141.94
2022-11-12T12:00:22.959Z,103135.94
2022-11-12T12:03:48.136Z,103134.00
2022-11-12T12:06:47.919Z,103124.00
2022-11-12T12:09:36.222Z,103129.72
2022-11-12T12:12:49.166Z,103128.09
2022-11-12T12:16:04.397Z,103127.16
2022-11-12T12:19:01.563Z,103130.25
2022-11-12T12:21:50.152Z,103129.31
2022-11-12T12:24:35.359Z,103127.22
2022-11-12T12:27:26.180Z,103130.25
2022-11-12T12:30:26.565Z,103122.53
2022-11-12T12:33:17.882Z,103121.63
2022-11-12T12:36:37.689Z,103116.16
2022-11-12T12:39:27.578Z,103111.19
2022-11-12T12:42:20.390Z,103107.13
2022-11-12T12:45:35.580Z,103096.94
2022-11-12T12:48:42.926Z,103108.13
2022-11-12T12:51:31.270Z,103112.84
2022-11-12T12:54:34.678Z,103113.16
2022-11-12T12:57:31.999Z,103116.66
2022-11-12T13:00:41.087Z,103103.88
2022-11-12T13:03:44.982Z,103098.16
2022-11-12T13:06:45.667Z,103096.88
2022-11-12T13:09:30.865Z,103101.63
2022-11-12T13:12:17.524Z,103096.38
2022-11-12T13:15:13.913Z,103094.59
2022-11-12T13:17:59.320Z,103092.34
2022-11-12T13:21:11.690Z,103082.41
2022-11-12T13:24:08.435Z,103079.31
2022-11-12T13:26:56.945Z,103085.25
2022-11-12T13:29:43.198Z,103082.16
2022-11-12T13:32:43.535Z,103085.59
2022-11-12T13:35:39.551Z,103081.22
2022-11-12T13:38:26.222Z,103082.97
2022-11-12T13:41:11.527Z,103078.28
2022-11-12T13:43:57.388Z,103077.31
2022-11-12T13:46:44.313Z,103092.94
2022-11-12T13:49:30.344Z,103095.94
2022-11-12T13:52:16.188Z,103093.69
2022-11-12T13:55:23.160Z,103105.63
2022-11-12T13:58:20.687Z,103092.66
2022-11-12T14:01:07.939Z,103089.25
2022-11-12T14:03:54.092Z,103079.69
2022-11-12T14:06:44.133Z,103080.44
2022-11-12T14:10:08.671Z,103081.19
2022-11-12T14:13:12.890Z,103082.13
2022-11-12T14:16:27.998Z,103081.97
2022-11-12T14:19:38.703Z,103082.50
2022-11-12T14:22:24.798Z,103068.34
2022-11-12T14:25:19.623Z,103064.28
2022-11-12T14:28:05.293Z,103074.31
2022-11-12T14:30:50.452Z,103071.22
2022-11-12T14:33:35.790Z,103072.41
2022-11-12T14:36:22.147Z,103070.84
2022-11-12T14:39:11.068Z,103059.63
2022-11-12T14:41:58.473Z,103058.53
2022-11-12T14:44:44.237Z,103054.72
2022-11-12T14:47:29.581Z,103061.19
2022-11-12T14:50:29.219Z,103053.63
2022-11-12T14:53:24.692Z,103045.34
2022-11-12T14:56:18.423Z,103046.84
2022-11-12T14:59:04.760Z,103038.34
2022-11-12T15:02:33.540Z,103038.72
2022-11-12T15:05:27.504Z,103030.16
2022-11-12T15:08:13.209Z,103032.63
2022-11-12T15:11:22.035Z,103026.41
2022-11-12T15:14:19.614Z,103015.28
2022-11-12T15:17:06.011Z,103015.81
2022-11-12T15:19:51.388Z,103013.72
2022-11-12T15:22:37.256Z,103010.91
2022-11-12T15:25:31.988Z,103008.31
2022-11-12T15:28:24.680Z,103001.97
2022-11-12T15:31:21.889Z,103005.19
2022-11-12T15:34:41.027Z,103000.81
2022-11-12T15:37:29.908Z,102994.94
2022-11-12T15:40:19.196Z,102997.31
2022-11-12T15:43:10.272Z,103000.09
2022-11-12T15:45:56.225Z,103005.84
2022-11-12T15:48:41.599Z,102989.00
2022-11-12T15:51:27.209Z,102986.69
2022-11-12T15:54:12.546Z,102980.72
2022-11-12T15:56:57.850Z,102984.81
2022-11-12T15:59:44.826Z,102991.31
2022-11-12T16:02:30.762Z,102975.34
2022-11-12T16:05:17.560Z,102981.47
2022-11-12T16:08:02.985Z,102983.41
2022-11-12T16:10:48.735Z,102982.75
2022-11-12T16:13:34.635Z,102990.88
2022-11-12T16:16:20.441Z,102993.78
2022-11-12T16:19:15.047Z,102988.03
2022-11-12T16:22:01.541Z,102988.56
2022-11-12T16:24:46.837Z,102989.25
2022-11-12T16:27:32.450Z,102981.50
2022-11-12T16:30:20.541Z,102990.03
2022-11-12T16:33:05.663Z,102989.63
2022-11-12T16:35:51.299Z,102984.94
2022-11-12T16:38:36.567Z,102989.41
2022-11-12T16:41:21.881Z,102994.84
2022-11-12T16:44:07.100Z,102992.00
2022-11-12T16:46:52.600Z,102996.19
2022-11-12T16:49:39.022Z,102996.91
2022-11-12T16:52:25.916Z,103001.78
2022-11-12T16:55:11.457Z,103011.72
2022-11-12T16:57:56.907Z,103009.97
2022-11-12T17:00:46.022Z,103006.00
2022-11-12T17:03:31.515Z,102997.91
2022-11-12T17:06:17.749Z,102996.63
2022-11-12T17:09:07.993Z,102994.59
2022-11-12T17:11:53.466Z,103000.41
2022-11-12T17:14:38.860Z,103000.66
2022-11-12T17:17:24.199Z,103007.59
2022-11-12T17:20:10.051Z,103014.09
2022-11-12T17:22:55.568Z,103010.56
2022-11-12T17:25:40.720Z,102996.00
2022-11-12T17:28:28.767Z,102992.56
2022-11-12T17:31:20.172Z,103002.91
2022-11-12T17:34:08.919Z,103003.06
2022-11-12T17:36:54.283Z,103004.75
2022-11-12T17:39:39.796Z,103002.28
2022-11-12T17:42:25.232Z,103004.06
2022-11-12T17:45:10.331Z,102997.09
2022-11-12T17:47:55.910Z,102992.84
2022-11-12T17:50:41.160Z,102987.09
2022-11-12T17:53:27.009Z,102984.13
2022-11-12T17:56:15.379Z,102977.44
2022-11-12T17:59:02.086Z,102981.66
2022-11-12T18:01:47.618Z,102985.66
2022-11-12T18:04:32.619Z,102985.28
2022-11-12T18:07:18.146Z,102983.19
2022-11-12T18:10:04.055Z,102976.19
2022-11-12T18:12:51.402Z,102972.16
2022-11-12T18:15:36.682Z,102968.06
2022-11-12T18:18:22.370Z,102970.06
2022-11-12T18:21:07.801Z,102970.53
2022-11-12T18:23:53.485Z,102978.38
2022-11-12T18:26:39.114Z,102976.06
2022-11-12T18:29:24.464Z,102969.50
2022-11-12T18:32:09.704Z,102973.28
2022-11-12T18:34:54.985Z,102976.56
2022-11-12T18:37:40.360Z,102979.44
2022-11-12T18:40:25.679Z,102977.81
2022-11-12T18:43:11.184Z,102981.75
2022-11-12T18:46:01.040Z,102979.97
2022-11-12T18:48:47.491Z,102977.69
2022-11-12T18:51:32.738Z,102980.25
2022-11-12T18:54:18.264Z,102974.66
2022-11-12T18:57:04.031Z,102967.59
2022-11-12T18:59:52.174Z,102973.56
2022-11-12T19:02:37.498Z,102958.03
2022-11-12T19:05:22.679Z,102960.63
2022-11-12T19:08:08.059Z,102965.31
2022-11-12T19:11:00.183Z,102965.91
2022-11-12T19:13:45.456Z,102961.53
2022-11-12T19:16:30.640Z,102969.63
2022-11-12T19:19:16.572Z,102975.78
2022-11-12T19:22:01.925Z,102973.50
2022-11-12T19:24:47.100Z,102962.03
2022-11-12T19:27:32.536Z,102965.53
2022-11-12T19:30:18.284Z,102969.78
2022-11-12T19:33:03.820Z,102968.53
2022-11-12T19:35:48.890Z,102957.59
2022-11-12T19:38:34.447Z,102957.63
2022-11-12T19:41:20.302Z,102954.66
2022-11-12T19:44:05.975Z,102961.63
2022-11-12T19:46:51.472Z,102955.72
2022-11-12T19:49:36.898Z,102956.78
2022-11-12T19:52:22.542Z,102964.16
2022-11-12T19:55:08.090Z,102965.06
2022-11-12T19:57:53.335Z,102963.38
2022-11-12T20:00:38.501Z,102959.00
2022-11-12T20:03:26.249Z,102963.28
2022-11-12T20:06:14.175Z,102955.13
2022-11-12T20:09:00.195Z,102952.06
2022-11-12T20:11:45.259Z,102948.53
2022-11-12T20:14:30.683Z,102952.16
2022-11-12T20:17:15.977Z,102948.66
2022-11-12T20:20:01.313Z,102951.09
2022-11-12T20:22:46.545Z,102950.50
2022-11-12T20:25:31.677Z,102948.81
2022-11-12T20:28:17.635Z,102946.56
2022-11-12T20:31:06.655Z,102938.09
2022-11-12T20:33:52.051Z,102939.25
2022-11-12T20:36:37.817Z,102941.03
2022-11-12T20:39:22.992Z,102937.88
2022-11-12T20:42:08.068Z,102934.22
2022-11-12T20:44:53.736Z,102941.53
2022-11-12T20:47:39.282Z,102942.63
2022-11-12T20:50:24.941Z,102947.88
2022-11-12T20:53:13.081Z,102946.75
2022-11-12T20:56:10.468Z,102960.78
2022-11-12T20:58:55.715Z,102948.66
2022-11-12T21:01:41.387Z,102962.78
2022-11-12T21:04:26.748Z,102958.56
2022-11-12T21:07:12.480Z,102959.28
2022-11-12T21:09:58.210Z,102960.38
2022-11-12T21:12:43.701Z,102971.16
2022-11-12T21:15:29.074Z,102970.41
2022-11-12T21:18:14.804Z,102970.41
2022-11-12T21:21:10.857Z,102964.59
2022-11-12T21:23:58.327Z,102965.66
2022-11-12T21:26:48.683Z,102968.25
2022-11-12T21:29:34.590Z,102957.03
2022-11-12T21:32:19.704Z,102955.34
2022-11-12T21:35:05.723Z,102948.97
2022-11-12T21:37:50.872Z,102939.72
2022-11-12T21:40:35.985Z,102944.75
2022-11-12T21:43:21.466Z,102950.94
2022-11-12T21:46:08.500Z,102947.91
2022-11-12T21:48:55.744Z,102948.22
2022-11-12T21:51:41.055Z,102938.06
2022-11-12T21:54:26.484Z,102940.16
2022-11-12T21:57:16.092Z,102941.25
2022-11-12T22:00:34.540Z,102935.78
2022-11-12T22:03:09.549Z,102934.41
2022-11-12T22:05:55.075Z,102929.41
2022-11-12T22:08:41.081Z,102931.53
2022-11-12T22:11:27.184Z,102926.09
2022-11-12T22:14:12.283Z,102918.47
2022-11-12T22:16:57.446Z,102916.81
2022-11-12T22:19:42.839Z,102915.91
2022-11-12T22:22:28.564Z,102916.66
2022-11-12T22:25:14.070Z,102905.00
2022-11-12T22:27:59.237Z,102913.16
2022-11-12T22:30:44.577Z,102916.03
2022-11-12T22:33:30.098Z,102916.34
2022-11-12T22:36:21.400Z,102920.69
2022-11-12T22:39:06.823Z,102922.34
2022-11-12T22:41:51.982Z,102923.94
2022-11-12T22:44:37.470Z,102923.16
2022-11-12T22:47:22.665Z,102924.09
2022-11-12T22:50:08.715Z,102917.59
2022-11-12T22:52:55.321Z,102932.31
2022-11-12T22:55:40.723Z,102925.75
2022-11-12T22:58:26.053Z,102921.06
2022-11-12T23:01:27.550Z,102927.59
2022-11-12T23:04:13.069Z,102918.03
2022-11-12T23:06:58.339Z,102920.63
2022-11-12T23:09:43.609Z,102922.13
2022-11-12T23:12:30.321Z,102923.50
2022-11-12T23:15:15.932Z,102918.47
2022-11-12T23:18:01.154Z,102920.91
2022-11-12T23:20:46.488Z,102915.19
2022-11-12T23:23:32.163Z,102910.31
2022-11-12T23:26:20.484Z,102907.59
2022-11-12T23:29:05.946Z,102903.31
2022-11-12T23:31:51.166Z,102896.34
2022-11-12T23:34:36.632Z,102910.28
2022-11-12T23:37:22.083Z,102903.63
2022-11-12T23:40:08.436Z,102897.38
2022-11-12T23:42:54.157Z,102887.84
2022-11-12T23:45:39.491Z,102884.84
2022-11-12T23:48:25.722Z,102880.13
2022-11-12T23:51:14.676Z,102871.16
2022-11-12T23:53:59.926Z,102869.94
2022-11-12T23:56:45.298Z,102862.06
2022-11-12T23:59:30.444Z,102863.56
